sensor_id;sensor_type;location;lat;lon;timestamp;P1;durP1;ratioP1;P2;durP2;ratioP2
62709;SDS011;48770;51.624;5.886;2023-08-17T00:01:48;0.50;;;0.40;;
62709;SDS011;48770;51.624;5.886;2023-08-17T00:04:14;1.05;;;0.45;;
62709;SDS011;48770;51.624;5.886;2023-08-17T00:06:39;0.70;;;0.40;;
62709;SDS011;48770;51.624;5.886;2023-08-17T00:09:05;0.57;;;0.43;;
62709;SDS011;48770;51.624;5.886;2023-08-17T00:11:31;0.30;;;0.30;;
62709;SDS011;48770;51.624;5.886;2023-08-17T00:13:57;0.40;;;0.38;;
62709;SDS011;48770;51.624;5.886;2023-08-17T00:16:22;0.52;;;0.30;;
62709;SDS011;48770;51.624;5.886;2023-08-17T00:18:48;0.75;;;0.40;;
62709;SDS011;48770;51.624;5.886;2023-08-17T00:21:14;0.85;;;0.20;;
62709;SDS011;48770;51.624;5.886;2023-08-17T00:23:39;1.33;;;0.35;;
62709;SDS011;48770;51.624;5.886;2023-08-17T00:26:04;0.77;;;0.50;;
62709;SDS011;48770;51.624;5.886;2023-08-17T00:28:29;0.95;;;0.30;;
62709;SDS011;48770;51.624;5.886;2023-08-17T00:30:55;0.30;;;0.30;;
62709;SDS011;48770;51.624;5.886;2023-08-17T00:33:20;1.13;;;0.30;;
62709;SDS011;48770;51.624;5.886;2023-08-17T00:35:45;0.40;;;0.35;;
62709;SDS011;48770;51.624;5.886;2023-08-17T00:38:11;0.20;;;0.20;;
62709;SDS011;48770;51.624;5.886;2023-08-17T00:40:37;0.60;;;0.30;;
62709;SDS011;48770;51.624;5.886;2023-08-17T00:43:03;0.40;;;0.30;;
62709;SDS011;48770;51.624;5.886;2023-08-17T00:45:29;0.50;;;0.40;;
62709;SDS011;48770;51.624;5.886;2023-08-17T00:47:56;0.82;;;0.30;;
62709;SDS011;48770;51.624;5.886;2023-08-17T00:50:23;0.43;;;0.30;;
62709;SDS011;48770;51.624;5.886;2023-08-17T00:52:51;0.40;;;0.20;;
62709;SDS011;48770;51.624;5.886;2023-08-17T00:55:17;0.68;;;0.30;;
62709;SDS011;48770;51.624;5.886;2023-08-17T00:57:43;0.40;;;0.40;;
62709;SDS011;48770;51.624;5.886;2023-08-17T01:00:09;0.70;;;0.38;;
62709;SDS011;48770;51.624;5.886;2023-08-17T01:02:36;0.63;;;0.38;;
62709;SDS011;48770;51.624;5.886;2023-08-17T01:05:02;0.35;;;0.30;;
62709;SDS011;48770;51.624;5.886;2023-08-17T01:07:28;0.40;;;0.40;;
62709;SDS011;48770;51.624;5.886;2023-08-17T01:09:53;0.60;;;0.32;;
62709;SDS011;48770;51.624;5.886;2023-08-17T01:12:22;0.88;;;0.30;;
62709;SDS011;48770;51.624;5.886;2023-08-17T01:15:04;0.55;;;0.40;;
62709;SDS011;48770;51.624;5.886;2023-08-17T01:20:25;0.40;;;0.30;;
62709;SDS011;48770;51.624;5.886;2023-08-17T01:22:51;0.57;;;0.32;;
62709;SDS011;48770;51.624;5.886;2023-08-17T01:25:21;0.50;;;0.40;;
62709;SDS011;48770;51.624;5.886;2023-08-17T01:27:47;0.50;;;0.20;;
62709;SDS011;48770;51.624;5.886;2023-08-17T01:30:13;0.57;;;0.33;;
62709;SDS011;48770;51.624;5.886;2023-08-17T01:32:48;0.63;;;0.20;;
62709;SDS011;48770;51.624;5.886;2023-08-17T01:37:53;0.85;;;0.20;;
62709;SDS011;48770;51.624;5.886;2023-08-17T01:40:21;0.35;;;0.20;;
62709;SDS011;48770;51.624;5.886;2023-08-17T01:42:48;0.55;;;0.43;;
62709;SDS011;48770;51.624;5.886;2023-08-17T01:45:15;0.32;;;0.32;;
62709;SDS011;48770;51.624;5.886;2023-08-17T01:47:41;0.57;;;0.30;;
62709;SDS011;48770;51.624;5.886;2023-08-17T01:50:06;0.60;;;0.37;;
62709;SDS011;48770;51.624;5.886;2023-08-17T01:52:32;0.20;;;0.20;;
62709;SDS011;48770;51.624;5.886;2023-08-17T01:54:57;0.60;;;0.20;;
62709;SDS011;48770;51.624;5.886;2023-08-17T01:57:23;0.33;;;0.20;;
62709;SDS011;48770;51.624;5.886;2023-08-17T01:59:48;0.30;;;0.20;;
62709;SDS011;48770;51.624;5.886;2023-08-17T02:02:13;0.87;;;0.30;;
62709;SDS011;48770;51.624;5.886;2023-08-17T02:04:39;0.40;;;0.20;;
62709;SDS011;48770;51.624;5.886;2023-08-17T02:07:05;0.70;;;0.30;;
62709;SDS011;48770;51.624;5.886;2023-08-17T02:09:30;0.50;;;0.20;;
62709;SDS011;48770;51.624;5.886;2023-08-17T02:11:56;0.32;;;0.30;;
62709;SDS011;48770;51.624;5.886;2023-08-17T02:14:21;0.73;;;0.30;;
62709;SDS011;48770;51.624;5.886;2023-08-17T02:16:46;0.30;;;0.22;;
62709;SDS011;48770;51.624;5.886;2023-08-17T02:19:11;0.40;;;0.30;;
62709;SDS011;48770;51.624;5.886;2023-08-17T02:21:37;0.20;;;0.20;;
62709;SDS011;48770;51.624;5.886;2023-08-17T02:24:02;0.30;;;0.28;;
62709;SDS011;48770;51.624;5.886;2023-08-17T02:26:29;0.70;;;0.55;;
62709;SDS011;48770;51.624;5.886;2023-08-17T02:28:55;0.60;;;0.38;;
62709;SDS011;48770;51.624;5.886;2023-08-17T02:31:20;0.43;;;0.28;;
62709;SDS011;48770;51.624;5.886;2023-08-17T02:33:45;0.30;;;0.20;;
62709;SDS011;48770;51.624;5.886;2023-08-17T02:36:11;0.47;;;0.23;;
62709;SDS011;48770;51.624;5.886;2023-08-17T02:38:36;0.10;;;0.10;;
62709;SDS011;48770;51.624;5.886;2023-08-17T02:41:01;0.93;;;0.40;;
62709;SDS011;48770;51.624;5.886;2023-08-17T02:43:27;0.70;;;0.30;;
62709;SDS011;48770;51.624;5.886;2023-08-17T02:45:52;1.50;;;0.23;;
62709;SDS011;48770;51.624;5.886;2023-08-17T02:48:18;0.45;;;0.22;;
62709;SDS011;48770;51.624;5.886;2023-08-17T02:50:43;0.20;;;0.13;;
62709;SDS011;48770;51.624;5.886;2023-08-17T02:53:09;1.15;;;0.30;;
62709;SDS011;48770;51.624;5.886;2023-08-17T02:55:34;0.60;;;0.30;;
62709;SDS011;48770;51.624;5.886;2023-08-17T02:57:59;1.75;;;0.30;;
62709;SDS011;48770;51.624;5.886;2023-08-17T03:00:24;0.23;;;0.10;;
62709;SDS011;48770;51.624;5.886;2023-08-17T03:02:50;0.83;;;0.30;;
62709;SDS011;48770;51.624;5.886;2023-08-17T03:05:15;0.50;;;0.30;;
62709;SDS011;48770;51.624;5.886;2023-08-17T03:07:40;0.50;;;0.32;;
62709;SDS011;48770;51.624;5.886;2023-08-17T03:10:06;0.40;;;0.30;;
62709;SDS011;48770;51.624;5.886;2023-08-17T03:12:31;0.55;;;0.20;;
62709;SDS011;48770;51.624;5.886;2023-08-17T03:14:57;0.45;;;0.25;;
62709;SDS011;48770;51.624;5.886;2023-08-17T03:17:22;0.15;;;0.15;;
62709;SDS011;48770;51.624;5.886;2023-08-17T03:19:47;0.20;;;0.20;;
62709;SDS011;48770;51.624;5.886;2023-08-17T03:22:13;0.40;;;0.28;;
62709;SDS011;48770;51.624;5.886;2023-08-17T03:24:38;0.40;;;0.30;;
62709;SDS011;48770;51.624;5.886;2023-08-17T03:27:03;0.60;;;0.30;;
62709;SDS011;48770;51.624;5.886;2023-08-17T03:29:28;0.50;;;0.20;;
62709;SDS011;48770;51.624;5.886;2023-08-17T03:31:54;0.32;;;0.20;;
62709;SDS011;48770;51.624;5.886;2023-08-17T03:34:19;0.60;;;0.22;;
62709;SDS011;48770;51.624;5.886;2023-08-17T03:36:45;0.43;;;0.20;;
62709;SDS011;48770;51.624;5.886;2023-08-17T03:39:10;0.37;;;0.20;;
62709;SDS011;48770;51.624;5.886;2023-08-17T03:41:35;0.45;;;0.30;;
62709;SDS011;48770;51.624;5.886;2023-08-17T03:44:02;0.17;;;0.17;;
62709;SDS011;48770;51.624;5.886;2023-08-17T03:46:30;0.82;;;0.40;;
62709;SDS011;48770;51.624;5.886;2023-08-17T03:48:56;0.77;;;0.30;;
62709;SDS011;48770;51.624;5.886;2023-08-17T03:51:21;0.25;;;0.20;;
62709;SDS011;48770;51.624;5.886;2023-08-17T03:53:46;0.30;;;0.20;;
62709;SDS011;48770;51.624;5.886;2023-08-17T03:56:12;0.60;;;0.20;;
62709;SDS011;48770;51.624;5.886;2023-08-17T03:58:37;0.30;;;0.20;;
62709;SDS011;48770;51.624;5.886;2023-08-17T04:01:02;0.43;;;0.22;;
62709;SDS011;48770;51.624;5.886;2023-08-17T04:03:28;0.20;;;0.10;;
62709;SDS011;48770;51.624;5.886;2023-08-17T04:05:53;0.73;;;0.30;;
62709;SDS011;48770;51.624;5.886;2023-08-17T04:08:18;0.22;;;0.20;;
62709;SDS011;48770;51.624;5.886;2023-08-17T04:10:44;0.97;;;0.20;;
62709;SDS011;48770;51.624;5.886;2023-08-17T04:13:09;0.60;;;0.20;;
62709;SDS011;48770;51.624;5.886;2023-08-17T04:15:35;0.30;;;0.20;;
62709;SDS011;48770;51.624;5.886;2023-08-17T04:18:00;0.15;;;0.10;;
62709;SDS011;48770;51.624;5.886;2023-08-17T04:20:25;0.30;;;0.20;;
62709;SDS011;48770;51.624;5.886;2023-08-17T04:22:51;0.60;;;0.20;;
62709;SDS011;48770;51.624;5.886;2023-08-17T04:25:16;0.47;;;0.20;;
62709;SDS011;48770;51.624;5.886;2023-08-17T04:27:41;0.65;;;0.30;;
62709;SDS011;48770;51.624;5.886;2023-08-17T04:30:07;0.50;;;0.20;;
62709;SDS011;48770;51.624;5.886;2023-08-17T04:32:33;1.20;;;0.32;;
62709;SDS011;48770;51.624;5.886;2023-08-17T04:34:58;0.43;;;0.20;;
62709;SDS011;48770;51.624;5.886;2023-08-17T04:37:23;0.30;;;0.15;;
62709;SDS011;48770;51.624;5.886;2023-08-17T04:39:49;0.20;;;0.20;;
62709;SDS011;48770;51.624;5.886;2023-08-17T04:42:14;0.47;;;0.20;;
62709;SDS011;48770;51.624;5.886;2023-08-17T04:44:40;0.45;;;0.20;;
62709;SDS011;48770;51.624;5.886;2023-08-17T04:47:05;0.38;;;0.20;;
62709;SDS011;48770;51.624;5.886;2023-08-17T04:49:31;0.57;;;0.22;;
62709;SDS011;48770;51.624;5.886;2023-08-17T04:51:56;0.30;;;0.30;;
62709;SDS011;48770;51.624;5.886;2023-08-17T04:54:21;0.13;;;0.10;;
62709;SDS011;48770;51.624;5.886;2023-08-17T04:56:47;0.20;;;0.20;;
62709;SDS011;48770;51.624;5.886;2023-08-17T04:59:12;1.00;;;0.10;;
62709;SDS011;48770;51.624;5.886;2023-08-17T05:01:38;0.20;;;0.20;;
62709;SDS011;48770;51.624;5.886;2023-08-17T05:04:03;0.30;;;0.20;;
62709;SDS011;48770;51.624;5.886;2023-08-17T05:06:29;0.40;;;0.20;;
62709;SDS011;48770;51.624;5.886;2023-08-17T05:08:55;0.45;;;0.30;;
62709;SDS011;48770;51.624;5.886;2023-08-17T05:11:21;0.32;;;0.20;;
62709;SDS011;48770;51.624;5.886;2023-08-17T05:13:46;0.20;;;0.13;;
62709;SDS011;48770;51.624;5.886;2023-08-17T05:16:11;0.30;;;0.10;;
62709;SDS011;48770;51.624;5.886;2023-08-17T05:18:37;0.53;;;0.27;;
62709;SDS011;48770;51.624;5.886;2023-08-17T05:21:02;0.20;;;0.20;;
62709;SDS011;48770;51.624;5.886;2023-08-17T05:23:27;0.40;;;0.20;;
62709;SDS011;48770;51.624;5.886;2023-08-17T05:25:53;0.52;;;0.30;;
62709;SDS011;48770;51.624;5.886;2023-08-17T05:28:18;0.70;;;0.30;;
62709;SDS011;48770;51.624;5.886;2023-08-17T05:30:43;1.40;;;0.63;;
62709;SDS011;48770;51.624;5.886;2023-08-17T05:33:09;0.30;;;0.20;;
62709;SDS011;48770;51.624;5.886;2023-08-17T05:35:34;0.47;;;0.30;;
62709;SDS011;48770;51.624;5.886;2023-08-17T05:37:59;0.63;;;0.47;;
62709;SDS011;48770;51.624;5.886;2023-08-17T05:40:25;0.30;;;0.10;;
62709;SDS011;48770;51.624;5.886;2023-08-17T05:42:50;0.85;;;0.40;;
62709;SDS011;48770;51.624;5.886;2023-08-17T05:45:16;0.40;;;0.20;;
62709;SDS011;48770;51.624;5.886;2023-08-17T05:47:41;0.43;;;0.20;;
62709;SDS011;48770;51.624;5.886;2023-08-17T05:50:06;0.57;;;0.20;;
62709;SDS011;48770;51.624;5.886;2023-08-17T05:52:32;0.38;;;0.20;;
62709;SDS011;48770;51.624;5.886;2023-08-17T05:54:57;0.25;;;0.17;;
62709;SDS011;48770;51.624;5.886;2023-08-17T05:57:23;0.17;;;0.17;;
62709;SDS011;48770;51.624;5.886;2023-08-17T05:59:48;0.20;;;0.20;;
62709;SDS011;48770;51.624;5.886;2023-08-17T06:02:13;0.30;;;0.10;;
62709;SDS011;48770;51.624;5.886;2023-08-17T06:04:39;0.52;;;0.20;;
62709;SDS011;48770;51.624;5.886;2023-08-17T06:07:04;0.20;;;0.10;;
62709;SDS011;48770;51.624;5.886;2023-08-17T06:09:30;0.20;;;0.15;;
62709;SDS011;48770;51.624;5.886;2023-08-17T06:11:55;0.33;;;0.20;;
62709;SDS011;48770;51.624;5.886;2023-08-17T06:14:21;0.17;;;0.13;;
62709;SDS011;48770;51.624;5.886;2023-08-17T06:16:47;0.43;;;0.20;;
62709;SDS011;48770;51.624;5.886;2023-08-17T06:19:12;0.25;;;0.20;;
62709;SDS011;48770;51.624;5.886;2023-08-17T06:21:37;0.13;;;0.10;;
62709;SDS011;48770;51.624;5.886;2023-08-17T06:24:03;0.30;;;0.20;;
62709;SDS011;48770;51.624;5.886;2023-08-17T06:26:29;0.43;;;0.22;;
62709;SDS011;48770;51.624;5.886;2023-08-17T06:28:54;0.30;;;0.20;;
62709;SDS011;48770;51.624;5.886;2023-08-17T06:31:19;0.23;;;0.10;;
62709;SDS011;48770;51.624;5.886;2023-08-17T06:33:45;0.60;;;0.20;;
62709;SDS011;48770;51.624;5.886;2023-08-17T06:36:10;0.30;;;0.10;;
62709;SDS011;48770;51.624;5.886;2023-08-17T06:38:38;0.77;;;0.30;;
62709;SDS011;48770;51.624;5.886;2023-08-17T06:41:03;0.32;;;0.20;;
62709;SDS011;48770;51.624;5.886;2023-08-17T06:43:28;0.25;;;0.15;;
62709;SDS011;48770;51.624;5.886;2023-08-17T06:45:54;0.33;;;0.20;;
62709;SDS011;48770;51.624;5.886;2023-08-17T06:48:21;0.35;;;0.30;;
62709;SDS011;48770;51.624;5.886;2023-08-17T06:50:46;0.85;;;0.30;;
62709;SDS011;48770;51.624;5.886;2023-08-17T06:53:11;0.87;;;0.20;;
62709;SDS011;48770;51.624;5.886;2023-08-17T06:55:37;0.98;;;0.40;;
62709;SDS011;48770;51.624;5.886;2023-08-17T06:58:02;0.80;;;0.30;;
62709;SDS011;48770;51.624;5.886;2023-08-17T07:00:27;0.10;;;0.10;;
62709;SDS011;48770;51.624;5.886;2023-08-17T07:02:53;0.20;;;0.20;;
62709;SDS011;48770;51.624;5.886;2023-08-17T07:05:18;0.20;;;0.17;;
62709;SDS011;48770;51.624;5.886;2023-08-17T07:07:43;0.38;;;0.20;;
62709;SDS011;48770;51.624;5.886;2023-08-17T07:10:09;0.40;;;0.30;;
62709;SDS011;48770;51.624;5.886;2023-08-17T07:12:36;0.50;;;0.20;;
62709;SDS011;48770;51.624;5.886;2023-08-17T07:15:02;0.40;;;0.13;;
62709;SDS011;48770;51.624;5.886;2023-08-17T07:17:29;0.77;;;0.20;;
62709;SDS011;48770;51.624;5.886;2023-08-17T07:19:54;0.17;;;0.13;;
62709;SDS011;48770;51.624;5.886;2023-08-17T07:22:20;0.13;;;0.10;;
62709;SDS011;48770;51.624;5.886;2023-08-17T07:24:45;0.30;;;0.10;;
62709;SDS011;48770;51.624;5.886;2023-08-17T07:27:10;0.32;;;0.15;;
62709;SDS011;48770;51.624;5.886;2023-08-17T07:29:36;0.20;;;0.10;;
62709;SDS011;48770;51.624;5.886;2023-08-17T07:32:01;0.20;;;0.20;;
62709;SDS011;48770;51.624;5.886;2023-08-17T07:34:27;0.85;;;0.22;;
62709;SDS011;48770;51.624;5.886;2023-08-17T07:36:53;0.98;;;0.32;;
62709;SDS011;48770;51.624;5.886;2023-08-17T07:39:18;0.30;;;0.30;;
62709;SDS011;48770;51.624;5.886;2023-08-17T07:41:43;0.83;;;0.23;;
62709;SDS011;48770;51.624;5.886;2023-08-17T07:44:09;0.40;;;0.20;;
62709;SDS011;48770;51.624;5.886;2023-08-17T07:46:34;0.47;;;0.20;;
62709;SDS011;48770;51.624;5.886;2023-08-17T07:49:00;0.57;;;0.10;;
62709;SDS011;48770;51.624;5.886;2023-08-17T07:51:25;0.63;;;0.30;;
62709;SDS011;48770;51.624;5.886;2023-08-17T07:53:50;2.05;;;0.63;;
62709;SDS011;48770;51.624;5.886;2023-08-17T07:56:16;4.20;;;0.80;;
62709;SDS011;48770;51.624;5.886;2023-08-17T07:58:41;6.20;;;1.05;;
62709;SDS011;48770;51.624;5.886;2023-08-17T08:01:06;4.47;;;1.20;;
62709;SDS011;48770;51.624;5.886;2023-08-17T08:03:32;3.25;;;0.80;;
62709;SDS011;48770;51.624;5.886;2023-08-17T08:05:57;4.82;;;0.80;;
62709;SDS011;48770;51.624;5.886;2023-08-17T08:08:23;2.60;;;0.55;;
62709;SDS011;48770;51.624;5.886;2023-08-17T08:10:48;2.00;;;0.75;;
62709;SDS011;48770;51.624;5.886;2023-08-17T08:13:13;3.53;;;0.60;;
62709;SDS011;48770;51.624;5.886;2023-08-17T08:15:39;4.55;;;1.05;;
62709;SDS011;48770;51.624;5.886;2023-08-17T08:18:04;4.53;;;1.00;;
62709;SDS011;48770;51.624;5.886;2023-08-17T08:20:30;4.45;;;0.93;;
62709;SDS011;48770;51.624;5.886;2023-08-17T08:22:55;3.80;;;0.88;;
62709;SDS011;48770;51.624;5.886;2023-08-17T08:25:20;4.13;;;0.75;;
62709;SDS011;48770;51.624;5.886;2023-08-17T08:27:46;3.23;;;0.90;;
62709;SDS011;48770;51.624;5.886;2023-08-17T08:30:11;4.40;;;0.73;;
62709;SDS011;48770;51.624;5.886;2023-08-17T08:32:36;4.18;;;0.75;;
62709;SDS011;48770;51.624;5.886;2023-08-17T08:35:02;4.18;;;0.88;;
62709;SDS011;48770;51.624;5.886;2023-08-17T08:37:27;1.92;;;0.77;;
62709;SDS011;48770;51.624;5.886;2023-08-17T08:39:54;2.60;;;0.80;;
62709;SDS011;48770;51.624;5.886;2023-08-17T08:42:20;2.33;;;0.80;;
62709;SDS011;48770;51.624;5.886;2023-08-17T08:44:46;2.03;;;0.93;;
62709;SDS011;48770;51.624;5.886;2023-08-17T08:47:12;2.40;;;0.70;;
62709;SDS011;48770;51.624;5.886;2023-08-17T08:49:39;1.50;;;0.90;;
62709;SDS011;48770;51.624;5.886;2023-08-17T08:52:08;2.97;;;1.00;;
62709;SDS011;48770;51.624;5.886;2023-08-17T08:54:38;4.60;;;1.10;;
62709;SDS011;48770;51.624;5.886;2023-08-17T08:57:08;6.30;;;1.40;;
62709;SDS011;48770;51.624;5.886;2023-08-17T08:59:38;3.05;;;0.85;;
62709;SDS011;48770;51.624;5.886;2023-08-17T09:02:09;2.72;;;0.90;;
62709;SDS011;48770;51.624;5.886;2023-08-17T09:04:39;3.88;;;1.25;;
62709;SDS011;48770;51.624;5.886;2023-08-17T09:07:05;4.50;;;0.80;;
62709;SDS011;48770;51.624;5.886;2023-08-17T09:09:31;3.28;;;1.13;;
62709;SDS011;48770;51.624;5.886;2023-08-17T09:11:57;5.10;;;1.40;;
62709;SDS011;48770;51.624;5.886;2023-08-17T09:14:22;2.97;;;1.17;;
62709;SDS011;48770;51.624;5.886;2023-08-17T09:16:47;2.80;;;1.00;;
62709;SDS011;48770;51.624;5.886;2023-08-17T09:19:13;4.90;;;1.40;;
62709;SDS011;48770;51.624;5.886;2023-08-17T09:21:39;3.30;;;1.10;;
62709;SDS011;48770;51.624;5.886;2023-08-17T09:24:04;4.43;;;1.40;;
62709;SDS011;48770;51.624;5.886;2023-08-17T09:26:32;3.45;;;1.23;;
62709;SDS011;48770;51.624;5.886;2023-08-17T09:28:59;5.45;;;1.63;;
62709;SDS011;48770;51.624;5.886;2023-08-17T09:31:24;10.27;;;2.08;;
62709;SDS011;48770;51.624;5.886;2023-08-17T09:33:50;6.60;;;1.60;;
62709;SDS011;48770;51.624;5.886;2023-08-17T09:36:19;4.68;;;1.80;;
62709;SDS011;48770;51.624;5.886;2023-08-17T09:38:47;6.05;;;1.90;;
62709;SDS011;48770;51.624;5.886;2023-08-17T09:41:14;4.72;;;2.00;;
62709;SDS011;48770;51.624;5.886;2023-08-17T09:43:39;6.07;;;2.15;;
62709;SDS011;48770;51.624;5.886;2023-08-17T09:46:05;10.35;;;2.15;;
62709;SDS011;48770;51.624;5.886;2023-08-17T09:48:32;4.85;;;2.00;;
62709;SDS011;48770;51.624;5.886;2023-08-17T09:50:58;5.82;;;1.60;;
62709;SDS011;48770;51.624;5.886;2023-08-17T09:53:24;7.43;;;1.77;;
62709;SDS011;48770;51.624;5.886;2023-08-17T09:55:50;5.88;;;2.35;;
62709;SDS011;48770;51.624;5.886;2023-08-17T09:58:16;4.93;;;2.15;;
62709;SDS011;48770;51.624;5.886;2023-08-17T10:00:45;9.63;;;2.50;;
62709;SDS011;48770;51.624;5.886;2023-08-17T10:03:14;5.80;;;2.60;;
62709;SDS011;48770;51.624;5.886;2023-08-17T10:05:40;6.28;;;2.17;;
62709;SDS011;48770;51.624;5.886;2023-08-17T10:08:07;7.03;;;2.78;;
62709;SDS011;48770;51.624;5.886;2023-08-17T10:10:34;5.38;;;2.00;;
62709;SDS011;48770;51.624;5.886;2023-08-17T10:15:34;7.20;;;2.53;;
62709;SDS011;48770;51.624;5.886;2023-08-17T10:18:15;6.35;;;2.05;;
62709;SDS011;48770;51.624;5.886;2023-08-17T10:21:00;7.30;;;2.45;;
62709;SDS011;48770;51.624;5.886;2023-08-17T10:23:27;4.68;;;2.38;;
62709;SDS011;48770;51.624;5.886;2023-08-17T10:25:54;5.40;;;2.22;;
62709;SDS011;48770;51.624;5.886;2023-08-17T10:28:21;6.25;;;2.40;;
62709;SDS011;48770;51.624;5.886;2023-08-17T10:30:47;5.28;;;2.20;;
62709;SDS011;48770;51.624;5.886;2023-08-17T10:33:13;6.95;;;2.10;;
62709;SDS011;48770;51.624;5.886;2023-08-17T10:35:40;4.30;;;2.30;;
62709;SDS011;48770;51.624;5.886;2023-08-17T10:38:06;4.20;;;2.17;;
62709;SDS011;48770;51.624;5.886;2023-08-17T10:40:36;6.57;;;2.30;;
62709;SDS011;48770;51.624;5.886;2023-08-17T10:43:04;5.68;;;2.30;;
62709;SDS011;48770;51.624;5.886;2023-08-17T10:45:30;7.57;;;1.98;;
62709;SDS011;48770;51.624;5.886;2023-08-17T10:50:35;4.40;;;2.17;;
62709;SDS011;48770;51.624;5.886;2023-08-17T10:53:05;4.38;;;1.80;;
62709;SDS011;48770;51.624;5.886;2023-08-17T10:55:38;3.20;;;1.90;;
62709;SDS011;48770;51.624;5.886;2023-08-17T10:58:17;3.78;;;2.13;;
62709;SDS011;48770;51.624;5.886;2023-08-17T11:00:42;5.97;;;2.83;;
62709;SDS011;48770;51.624;5.886;2023-08-17T11:03:09;3.75;;;2.08;;
62709;SDS011;48770;51.624;5.886;2023-08-17T11:08:23;5.10;;;2.10;;
62709;SDS011;48770;51.624;5.886;2023-08-17T11:11:01;3.80;;;1.95;;
62709;SDS011;48770;51.624;5.886;2023-08-17T11:13:32;3.80;;;2.05;;
62709;SDS011;48770;51.624;5.886;2023-08-17T11:16:00;6.07;;;1.80;;
62709;SDS011;48770;51.624;5.886;2023-08-17T11:18:25;4.90;;;2.38;;
62709;SDS011;48770;51.624;5.886;2023-08-17T11:20:51;4.85;;;1.75;;
62709;SDS011;48770;51.624;5.886;2023-08-17T11:23:16;3.60;;;2.05;;
62709;SDS011;48770;51.624;5.886;2023-08-17T11:25:42;4.68;;;1.95;;
62709;SDS011;48770;51.624;5.886;2023-08-17T11:28:08;6.75;;;2.25;;
62709;SDS011;48770;51.624;5.886;2023-08-17T11:30:34;3.42;;;2.17;;
62709;SDS011;48770;51.624;5.886;2023-08-17T11:33:02;4.50;;;2.03;;
62709;SDS011;48770;51.624;5.886;2023-08-17T11:35:27;4.97;;;2.17;;
62709;SDS011;48770;51.624;5.886;2023-08-17T11:37:53;5.63;;;2.40;;
62709;SDS011;48770;51.624;5.886;2023-08-17T11:40:18;4.72;;;2.03;;
62709;SDS011;48770;51.624;5.886;2023-08-17T11:42:44;5.65;;;2.25;;
62709;SDS011;48770;51.624;5.886;2023-08-17T11:45:10;4.68;;;2.40;;
62709;SDS011;48770;51.624;5.886;2023-08-17T11:47:36;5.45;;;2.80;;
62709;SDS011;48770;51.624;5.886;2023-08-17T11:50:03;10.23;;;2.60;;
62709;SDS011;48770;51.624;5.886;2023-08-17T11:52:30;3.88;;;2.28;;
62709;SDS011;48770;51.624;5.886;2023-08-17T11:54:59;5.50;;;2.78;;
62709;SDS011;48770;51.624;5.886;2023-08-17T11:57:25;6.03;;;2.63;;
62709;SDS011;48770;51.624;5.886;2023-08-17T11:59:54;6.53;;;2.85;;
62709;SDS011;48770;51.624;5.886;2023-08-17T12:02:24;4.95;;;2.40;;
62709;SDS011;48770;51.624;5.886;2023-08-17T12:04:50;4.03;;;2.30;;
62709;SDS011;48770;51.624;5.886;2023-08-17T12:07:16;7.10;;;2.60;;
62709;SDS011;48770;51.624;5.886;2023-08-17T12:09:43;4.55;;;2.45;;
62709;SDS011;48770;51.624;5.886;2023-08-17T12:12:09;7.25;;;2.40;;
62709;SDS011;48770;51.624;5.886;2023-08-17T12:14:35;6.93;;;2.63;;
62709;SDS011;48770;51.624;5.886;2023-08-17T12:17:02;5.85;;;2.53;;
62709;SDS011;48770;51.624;5.886;2023-08-17T12:19:28;3.92;;;2.30;;
62709;SDS011;48770;51.624;5.886;2023-08-17T12:21:54;7.38;;;2.30;;
62709;SDS011;48770;51.624;5.886;2023-08-17T12:24:19;5.18;;;2.60;;
62709;SDS011;48770;51.624;5.886;2023-08-17T12:26:48;4.53;;;2.22;;
62709;SDS011;48770;51.624;5.886;2023-08-17T12:29:14;4.75;;;2.55;;
62709;SDS011;48770;51.624;5.886;2023-08-17T12:31:40;5.53;;;2.55;;
62709;SDS011;48770;51.624;5.886;2023-08-17T12:34:05;5.72;;;2.47;;
62709;SDS011;48770;51.624;5.886;2023-08-17T12:36:31;3.45;;;2.17;;
62709;SDS011;48770;51.624;5.886;2023-08-17T12:38:57;6.03;;;2.65;;
62709;SDS011;48770;51.624;5.886;2023-08-17T12:41:23;4.28;;;2.60;;
62709;SDS011;48770;51.624;5.886;2023-08-17T12:43:48;4.78;;;2.60;;
62709;SDS011;48770;51.624;5.886;2023-08-17T12:46:14;4.60;;;2.38;;
62709;SDS011;48770;51.624;5.886;2023-08-17T12:48:39;5.28;;;2.35;;
62709;SDS011;48770;51.624;5.886;2023-08-17T12:51:04;4.43;;;2.53;;
62709;SDS011;48770;51.624;5.886;2023-08-17T12:53:30;5.43;;;3.00;;
62709;SDS011;48770;51.624;5.886;2023-08-17T12:55:55;4.88;;;2.38;;
62709;SDS011;48770;51.624;5.886;2023-08-17T12:58:21;5.90;;;2.60;;
62709;SDS011;48770;51.624;5.886;2023-08-17T13:00:46;5.05;;;2.70;;
62709;SDS011;48770;51.624;5.886;2023-08-17T13:03:12;7.07;;;2.70;;
62709;SDS011;48770;51.624;5.886;2023-08-17T13:05:37;4.68;;;2.33;;
62709;SDS011;48770;51.624;5.886;2023-08-17T13:08:05;7.85;;;3.35;;
62709;SDS011;48770;51.624;5.886;2023-08-17T13:10:30;5.38;;;2.78;;
62709;SDS011;48770;51.624;5.886;2023-08-17T13:12:55;7.38;;;2.67;;
62709;SDS011;48770;51.624;5.886;2023-08-17T13:15:24;4.85;;;2.42;;
62709;SDS011;48770;51.624;5.886;2023-08-17T13:17:49;5.10;;;2.58;;
62709;SDS011;48770;51.624;5.886;2023-08-17T13:20:14;3.47;;;2.55;;
62709;SDS011;48770;51.624;5.886;2023-08-17T13:22:40;6.80;;;2.92;;
62709;SDS011;48770;51.624;5.886;2023-08-17T13:25:05;3.85;;;2.60;;
62709;SDS011;48770;51.624;5.886;2023-08-17T13:27:31;5.38;;;2.72;;
62709;SDS011;48770;51.624;5.886;2023-08-17T13:29:57;5.93;;;2.83;;
62709;SDS011;48770;51.624;5.886;2023-08-17T13:32:23;5.07;;;2.60;;
62709;SDS011;48770;51.624;5.886;2023-08-17T13:34:50;4.13;;;2.70;;
62709;SDS011;48770;51.624;5.886;2023-08-17T13:37:15;4.88;;;2.70;;
62709;SDS011;48770;51.624;5.886;2023-08-17T13:39:41;3.83;;;2.63;;
62709;SDS011;48770;51.624;5.886;2023-08-17T13:42:06;7.28;;;2.95;;
62709;SDS011;48770;51.624;5.886;2023-08-17T13:44:31;5.70;;;3.20;;
62709;SDS011;48770;51.624;5.886;2023-08-17T13:46:57;8.23;;;3.10;;
62709;SDS011;48770;51.624;5.886;2023-08-17T13:49:22;5.90;;;2.57;;
62709;SDS011;48770;51.624;5.886;2023-08-17T13:51:47;6.00;;;2.47;;
62709;SDS011;48770;51.624;5.886;2023-08-17T13:54:12;4.78;;;2.47;;
62709;SDS011;48770;51.624;5.886;2023-08-17T13:56:38;6.38;;;2.65;;
62709;SDS011;48770;51.624;5.886;2023-08-17T13:59:03;7.40;;;2.80;;
62709;SDS011;48770;51.624;5.886;2023-08-17T14:01:29;4.25;;;2.53;;
62709;SDS011;48770;51.624;5.886;2023-08-17T14:03:54;5.72;;;2.75;;
62709;SDS011;48770;51.624;5.886;2023-08-17T14:06:19;4.50;;;2.70;;
62709;SDS011;48770;51.624;5.886;2023-08-17T14:08:44;4.78;;;2.58;;
62709;SDS011;48770;51.624;5.886;2023-08-17T14:11:10;5.65;;;2.55;;
62709;SDS011;48770;51.624;5.886;2023-08-17T14:13:35;4.57;;;2.85;;
62709;SDS011;48770;51.624;5.886;2023-08-17T14:16:01;4.30;;;2.42;;
62709;SDS011;48770;51.624;5.886;2023-08-17T14:18:27;5.38;;;2.72;;
62709;SDS011;48770;51.624;5.886;2023-08-17T14:20:53;6.40;;;2.72;;
62709;SDS011;48770;51.624;5.886;2023-08-17T14:23:18;4.90;;;2.78;;
62709;SDS011;48770;51.624;5.886;2023-08-17T14:25:44;3.33;;;2.50;;
62709;SDS011;48770;51.624;5.886;2023-08-17T14:28:09;4.47;;;2.85;;
62709;SDS011;48770;51.624;5.886;2023-08-17T14:30:34;6.18;;;2.63;;
62709;SDS011;48770;51.624;5.886;2023-08-17T14:33:00;4.68;;;2.60;;
62709;SDS011;48770;51.624;5.886;2023-08-17T14:35:26;5.15;;;2.80;;
62709;SDS011;48770;51.624;5.886;2023-08-17T14:37:52;7.55;;;3.00;;
62709;SDS011;48770;51.624;5.886;2023-08-17T14:40:17;4.93;;;2.60;;
62709;SDS011;48770;51.624;5.886;2023-08-17T14:42:43;4.15;;;3.05;;
62709;SDS011;48770;51.624;5.886;2023-08-17T14:45:09;3.65;;;2.83;;
62709;SDS011;48770;51.624;5.886;2023-08-17T14:47:35;3.97;;;2.58;;
62709;SDS011;48770;51.624;5.886;2023-08-17T14:50:00;3.85;;;2.83;;
62709;SDS011;48770;51.624;5.886;2023-08-17T14:52:26;4.78;;;2.75;;
62709;SDS011;48770;51.624;5.886;2023-08-17T14:54:51;4.28;;;2.78;;